CheckWX is a tool to help pilots better visualize weather data.  It is not intended as a substitute for an official pre-flight weather briefing.

05:37:16 UTC

CYTS TAF
Timmins Airport
Timmins, Canada
TAF CYTS 240138Z 2402/2414 11010KT 6SM -SN OVC025 TEMPO 2402/2408 11/2SM -SN VV007 BECMG 2406/2408 12012G22KT FM240800 11015G25KT 1SM -SN BLSN VV006 TEMPO 2408/2410 3SM -SN VV012 FM241000 10015G25KT 1/2SM SN BLSN VV004 FM241300 10015G25KT 1/4SM +SN BLSN VV003 RMK NXT FCST BY 240800Z

Feb-24@
02:00 UTC

Feb-24 @ 02:00 UTC

Feb-24@
06:00 UTC

Feb-24 @ 06:00 UTC

TAF CYTS 240138Z 2402/2414 11010KT 6SM -SN OVC025
Wind
  • 110° at 10 KTS
Conditions
Light Snow
Cloud Levels
  • Overcast at 2,500' AGL

Feb-24@
02:00 UTC

Feb-24 @ 02:00 UTC

Feb-24@
08:00 UTC

Feb-24 @ 08:00 UTC

TEMPO 2402/2408 11/2SM -SN VV007

Temporary

Temporary Changes expected for less than half the time period

Conditions
Light Snow
Cloud Levels
  • Vertical visibility at 700' AGL

Feb-24@
06:00 UTC

Feb-24 @ 06:00 UTC

Feb-24@
08:00 UTC

Feb-24 @ 08:00 UTC

BECMG 2406/2408 12012G22KT

Becoming

Becoming Conditions expected by Sun, Feb 24, 2019 @ 08:00 UTC

Wind
  • 120° at 12 KTS
  • {Gusting to 22 KTS
Conditions
Light Snow
Cloud Levels
  • Overcast at 2,500' AGL

Feb-24@
08:00 UTC

Feb-24 @ 08:00 UTC

Feb-24@
10:00 UTC

Feb-24 @ 10:00 UTC

FM240800 11015G25KT 1SM -SN BLSN VV006

From

From Standard forecast or significant change

Wind
  • 110° at 15 KTS
  • {Gusting to 25 KTS
Conditions
Light Snow, Blowing Snow
Cloud Levels
  • Vertical visibility at 600' AGL

Feb-24@
08:00 UTC

Feb-24 @ 08:00 UTC

Feb-24@
10:00 UTC

Feb-24 @ 10:00 UTC

TEMPO 2408/2410 3SM -SN VV012

Temporary

Temporary Changes expected for less than half the time period

Conditions
Light Snow
Cloud Levels
  • Vertical visibility at 1,200' AGL

Feb-24@
10:00 UTC

Feb-24 @ 10:00 UTC

Feb-24@
13:00 UTC

Feb-24 @ 13:00 UTC

FM241000 10015G25KT 1/2SM SN BLSN VV004

From

From Standard forecast or significant change

Wind
  • 100° at 15 KTS
  • {Gusting to 25 KTS
Conditions
Snow, Blowing Snow
Cloud Levels
  • Vertical visibility at 400' AGL

Feb-24@
13:00 UTC

Feb-24 @ 13:00 UTC

Feb-24@
14:00 UTC

Feb-24 @ 14:00 UTC

FM241300 10015G25KT 1/4SM +SN BLSN VV003 RMK NXT FCST BY 240800Z

From

From Standard forecast or significant change

Wind
  • 100° at 15 KTS
  • {Gusting to 25 KTS
Conditions
Heavy Snow, Blowing Snow
Cloud Levels
  • Vertical visibility at 300' AGL